Time;durP1;ratioP1;P1;durP2;ratioP2;P2;SDS_P1;SDS_P2;PMS_P1;PMS_P2;Temp;Humidity;BMP_temperature;BMP_pressure;BME280_temperature;BME280_humidity;BME280_pressure;Samples;Min_cycle;Max_cycle;Signal;HPM_P1;HPM_P2
2021/10/25 00:00:15;;;;;;;7.73;3.97;;;5.00;98.90;;;;;;5013359;28;20073;-90
2021/10/25 00:02:41;;;;;;;7.20;4.10;;;5.10;98.70;;;;;;5013690;28;20022;-90
2021/10/25 00:05:07;;;;;;;8.33;3.83;;;5.10;98.50;;;;;;5013767;28;20045;-90
2021/10/25 00:07:32;;;;;;;6.37;3.80;;;5.10;98.40;;;;;;5012966;28;20121;-90
2021/10/25 00:09:59;;;;;;;5.93;3.80;;;5.00;98.30;;;;;;5013877;28;20060;-90
2021/10/25 00:12:25;;;;;;;8.27;4.20;;;4.90;98.40;;;;;;5013326;28;20032;-89
2021/10/25 00:14:50;;;;;;;7.23;4.00;;;4.90;98.50;;;;;;5013465;28;20034;-90
2021/10/25 00:17:16;;;;;;;8.10;4.00;;;4.90;98.70;;;;;;5013510;28;20044;-90
2021/10/25 00:19:41;;;;;;;8.10;4.43;;;4.70;98.70;;;;;;5014188;28;20025;-90
2021/10/25 00:22:07;;;;;;;7.00;3.80;;;4.80;98.90;;;;;;5013622;28;20033;-90
2021/10/25 00:24:33;;;;;;;7.27;4.00;;;4.80;99.00;;;;;;5011576;28;20045;-91
2021/10/25 00:26:58;;;;;;;6.97;3.90;;;4.80;99.00;;;;;;5013427;28;20537;-91
2021/10/25 00:29:24;;;;;;;6.80;3.73;;;4.90;98.90;;;;;;5012484;28;20026;-90
2021/10/25 00:31:50;;;;;;;6.10;4.27;;;4.80;98.80;;;;;;5013038;28;20029;-91
2021/10/25 00:34:16;;;;;;;8.50;4.33;;;4.80;98.70;;;;;;5013049;28;20034;-90
2021/10/25 00:36:42;;;;;;;6.10;4.10;;;4.90;98.70;;;;;;5012655;28;20026;-90
2021/10/25 00:39:08;;;;;;;6.20;3.47;;;4.90;98.60;;;;;;5013868;28;20083;-91
2021/10/25 00:41:34;;;;;;;6.27;3.67;;;4.90;98.40;;;;;;5013983;28;20033;-91
2021/10/25 00:44:00;;;;;;;7.97;4.13;;;4.90;98.50;;;;;;5013365;28;20026;-91
2021/10/25 00:46:25;;;;;;;6.30;3.90;;;4.90;98.30;;;;;;5013119;28;20034;-91
2021/10/25 00:48:51;;;;;;;6.13;3.60;;;4.90;98.20;;;;;;5013333;28;20076;-91
2021/10/25 00:51:17;;;;;;;6.33;3.30;;;4.70;98.40;;;;;;5013062;28;20030;-91
2021/10/25 00:53:43;;;;;;;5.50;3.90;;;4.60;98.70;;;;;;5013917;28;20127;-91
2021/10/25 00:56:09;;;;;;;6.50;3.67;;;4.70;98.70;;;;;;5012814;28;20046;-93
2021/10/25 00:58:36;;;;;;;7.03;4.13;;;4.60;98.70;;;;;;5012752;28;20379;-92
2021/10/25 01:01:02;;;;;;;5.73;4.10;;;4.60;98.80;;;;;;5013238;28;20037;-92
2021/10/25 01:03:29;;;;;;;6.10;3.33;;;4.60;99.00;;;;;;5012444;28;20129;-93
2021/10/25 01:05:56;;;;;;;9.93;4.00;;;4.60;98.90;;;;;;5014177;28;20375;-93
2021/10/25 01:08:23;;;;;;;6.43;3.50;;;4.70;98.70;;;;;;5012911;28;20495;-92
2021/10/25 01:10:49;;;;;;;7.07;4.10;;;4.70;98.60;;;;;;5013223;28;20398;-91
2021/10/25 01:13:15;;;;;;;6.63;3.93;;;4.60;98.60;;;;;;5013153;28;20033;-90
2021/10/25 01:15:42;;;;;;;6.47;3.70;;;4.50;98.70;;;;;;5012763;28;20022;-91
2021/10/25 01:18:08;;;;;;;8.97;3.80;;;4.40;98.60;;;;;;5013037;28;20022;-91
2021/10/25 01:20:33;;;;;;;6.30;3.90;;;4.50;98.80;;;;;;5012469;28;20061;-91
2021/10/25 01:23:00;;;;;;;5.67;3.60;;;4.60;98.70;;;;;;5012879;28;20064;-90
2021/10/25 01:25:27;;;;;;;7.10;3.57;;;4.70;98.90;;;;;;5012393;28;20041;-91
2021/10/25 01:27:53;;;;;;;4.60;3.53;;;4.60;98.50;;;;;;5013705;28;20037;-91
2021/10/25 01:30:19;;;;;;;7.20;3.63;;;4.70;98.40;;;;;;5012633;28;20022;-90
2021/10/25 01:32:47;;;;;;;4.30;3.37;;;4.70;98.40;;;;;;5012604;28;20463;-90
2021/10/25 01:35:13;;;;;;;7.60;3.73;;;4.60;98.30;;;;;;5012826;28;20391;-87
2021/10/25 01:37:39;;;;;;;4.97;3.60;;;4.60;98.40;;;;;;5015701;28;20104;-87
2021/10/25 01:40:07;;;;;;;7.80;3.83;;;4.60;98.40;;;;;;5016238;28;20022;-87
2021/10/25 01:42:33;;;;;;;6.30;3.60;;;4.60;98.60;;;;;;5015825;28;20026;-88
2021/10/25 01:44:59;;;;;;;6.17;3.50;;;4.50;98.80;;;;;;5016197;28;20368;-87
2021/10/25 01:47:25;;;;;;;5.50;3.23;;;4.50;98.70;;;;;;5015814;28;20057;-88
2021/10/25 01:49:51;;;;;;;7.73;4.07;;;4.50;98.90;;;;;;5016309;28;20026;-87
2021/10/25 01:52:17;;;;;;;5.40;3.50;;;4.40;99.00;;;;;;5016253;28;20026;-87
2021/10/25 01:54:43;;;;;;;6.20;3.67;;;4.40;99.20;;;;;;5017194;28;20022;-92
2021/10/25 01:57:09;;;;;;;6.97;3.37;;;4.40;99.40;;;;;;5019827;28;20135;-93
2021/10/25 01:59:35;;;;;;;7.63;3.80;;;4.40;99.50;;;;;;5020616;28;20026;-94
2021/10/25 02:02:02;;;;;;;5.57;3.30;;;4.40;99.50;;;;;;5018638;28;20053;-93
2021/10/25 02:04:28;;;;;;;6.77;3.63;;;4.40;99.50;;;;;;5018490;28;20499;-93
2021/10/25 02:06:54;;;;;;;6.87;3.60;;;4.40;99.30;;;;;;5016732;28;20062;-93
2021/10/25 02:09:21;;;;;;;7.10;3.70;;;4.40;99.50;;;;;;5016791;28;20025;-92
2021/10/25 02:11:47;;;;;;;5.63;3.47;;;4.40;99.40;;;;;;5020807;28;20490;-93
2021/10/25 02:14:13;;;;;;;5.37;3.33;;;4.40;99.50;;;;;;5022215;28;20036;-92
2021/10/25 02:16:40;;;;;;;7.83;3.80;;;4.40;99.50;;;;;;5015166;28;20033;-93
2021/10/25 02:19:05;;;;;;;5.37;3.27;;;4.40;99.50;;;;;;5015837;28;20055;-93
2021/10/25 02:21:31;;;;;;;4.77;3.20;;;4.40;99.80;;;;;;5015232;28;20088;-93
2021/10/25 02:23:57;;;;;;;5.17;3.63;;;4.40;99.90;;;;;;5015487;28;20025;-86
2021/10/25 02:26:22;;;;;;;7.40;3.20;;;4.30;99.80;;;;;;5015332;28;20387;-87
2021/10/25 02:28:48;;;;;;;5.83;3.60;;;4.30;99.90;;;;;;5015386;28;20471;-86
2021/10/25 02:31:13;;;;;;;6.17;3.47;;;4.30;99.90;;;;;;5015590;28;20029;-86
2021/10/25 02:33:40;;;;;;;5.57;3.40;;;4.30;99.90;;;;;;5014921;28;20034;-85
2021/10/25 02:36:07;;;;;;;6.23;3.30;;;4.20;99.90;;;;;;5016751;28;20026;-86
2021/10/25 02:38:34;;;;;;;6.90;3.53;;;4.30;99.90;;;;;;5014866;28;20022;-86
2021/10/25 02:41:00;;;;;;;4.30;3.27;;;4.20;99.70;;;;;;5015102;28;20026;-86
2021/10/25 02:43:26;;;;;;;5.70;3.27;;;4.30;99.80;;;;;;5014864;28;20378;-89
2021/10/25 02:45:52;;;;;;;7.37;3.40;;;4.20;99.50;;;;;;5016486;28;20112;-86
2021/10/25 02:48:17;;;;;;;5.60;3.47;;;4.20;99.70;;;;;;5014421;28;20124;-86
2021/10/25 02:50:43;;;;;;;5.97;3.23;;;4.20;99.70;;;;;;5015302;28;20030;-86
2021/10/25 02:53:11;;;;;;;6.00;3.23;;;4.20;99.70;;;;;;5015373;28;20022;-86
2021/10/25 02:55:37;;;;;;;6.23;3.50;;;4.20;99.60;;;;;;5014410;28;20054;-86
2021/10/25 02:58:03;;;;;;;5.63;3.30;;;4.20;99.40;;;;;;5015129;28;20061;-86
2021/10/25 03:00:30;;;;;;;5.60;3.10;;;4.20;99.70;;;;;;5014748;28;20026;-88
2021/10/25 03:02:56;;;;;;;5.20;3.37;;;4.10;99.60;;;;;;5015292;28;20061;-86
2021/10/25 03:05:23;;;;;;;7.40;3.30;;;4.10;99.60;;;;;;5015119;28;20045;-87
2021/10/25 03:07:49;;;;;;;5.63;3.60;;;4.10;99.60;;;;;;5014695;28;20041;-87
2021/10/25 03:10:14;;;;;;;4.70;3.37;;;4.00;99.90;;;;;;5015104;28;20025;-87
2021/10/25 03:12:40;;;;;;;6.80;3.40;;;4.10;99.90;;;;;;5014640;28;20076;-87
2021/10/25 03:15:07;;;;;;;5.17;3.30;;;4.00;99.80;;;;;;5015382;28;20062;-88
2021/10/25 03:17:32;;;;;;;7.33;3.07;;;4.10;99.80;;;;;;5014390;28;20068;-89
2021/10/25 03:19:58;;;;;;;4.60;3.30;;;4.10;99.90;;;;;;5014559;28;20034;-88
2021/10/25 03:22:25;;;;;;;6.50;3.40;;;4.10;99.80;;;;;;5015919;28;20375;-85
2021/10/25 03:24:51;;;;;;;6.53;3.10;;;4.00;99.90;;;;;;5014138;28;20041;-86
2021/10/25 03:27:17;;;;;;;5.87;3.33;;;4.00;99.90;;;;;;5014737;28;20491;-85
2021/10/25 03:29:42;;;;;;;4.40;3.00;;;4.10;99.90;;;;;;5014290;28;20037;-89
2021/10/25 03:32:09;;;;;;;8.10;3.20;;;4.10;99.80;;;;;;5014922;28;20025;-90
2021/10/25 03:34:35;;;;;;;5.73;3.40;;;4.20;99.70;;;;;;5013976;28;20038;-87
2021/10/25 03:37:02;;;;;;;5.20;3.50;;;4.20;99.60;;;;;;5014769;28;20049;-87
2021/10/25 03:39:31;;;;;;;4.90;3.10;;;4.10;99.70;;;;;;5014616;28;20029;-88
2021/10/25 03:41:57;;;;;;;6.90;3.40;;;4.10;99.60;;;;;;5015547;28;20093;-87
2021/10/25 03:44:27;;;;;;;6.47;3.10;;;4.20;99.80;;;;;;5014175;28;20053;-88
2021/10/25 03:47:07;;;;;;;4.67;2.77;;;4.20;99.90;;;;;;5013892;28;20030;-87
2021/10/25 03:49:53;;;;;;;4.43;2.63;;;4.20;99.90;;;;;;5013902;28;20030;-86
2021/10/25 03:52:35;;;;;;;7.03;2.67;;;4.20;99.90;;;;;;5014374;28;20426;-86
2021/10/25 03:55:19;;;;;;;6.17;2.87;;;4.20;99.90;;;;;;5013926;28;20038;-87
2021/10/25 03:58:15;;;;;;;4.93;2.40;;;4.20;99.90;;;;;;5013763;28;20137;-87
2021/10/25 04:00:54;;;;;;;8.07;3.23;;;4.20;99.90;;;;;;5014431;28;20053;-87
2021/10/25 04:28:29;;;;;;;5.23;2.60;;;4.10;99.70;;;;;;5014452;28;20033;-89
2021/10/25 04:30:36;;;;;;;4.57;2.90;;;4.00;99.70;;;;;;5013967;28;20362;-89
2021/10/25 04:33:03;;;;;;;4.73;2.73;;;4.00;99.70;;;;;;5014183;28;20021;-86
2021/10/25 04:35:29;;;;;;;4.93;2.80;;;4.00;99.70;;;;;;5012456;28;20378;-86
2021/10/25 04:37:55;;;;;;;5.50;2.73;;;4.00;99.90;;;;;;5012318;28;20045;-85
2021/10/25 04:40:21;;;;;;;4.20;2.87;;;4.00;99.90;;;;;;5028824;28;20054;-85
2021/10/25 04:42:47;;;;;;;5.23;2.53;;;4.10;99.90;;;;;;5028459;28;20157;-84
2021/10/25 04:45:13;;;;;;;4.70;2.47;;;4.00;99.90;;;;;;5028844;28;20101;-86
2021/10/25 04:47:38;;;;;;;5.07;2.67;;;4.10;99.90;;;;;;5012169;28;20115;-85
2021/10/25 04:50:05;;;;;;;5.13;2.97;;;4.00;99.90;;;;;;5009995;28;20068;-91
2021/10/25 04:52:31;;;;;;;5.13;2.60;;;4.00;99.90;;;;;;5011974;28;20014;-91
2021/10/25 04:54:57;;;;;;;5.10;2.70;;;4.00;99.90;;;;;;5028607;28;20447;-90
2021/10/25 04:57:22;;;;;;;5.17;2.47;;;4.00;99.90;;;;;;5028481;28;20022;-92
2021/10/25 04:59:48;;;;;;;6.37;2.47;;;3.90;99.80;;;;;;5028110;28;20376;-86
2021/10/25 05:02:14;;;;;;;3.60;2.23;;;3.90;99.90;;;;;;5028351;28;20022;-87
2021/10/25 05:04:41;;;;;;;4.00;2.60;;;4.00;99.90;;;;;;5027973;28;20037;-87
2021/10/25 05:07:06;;;;;;;4.50;2.20;;;4.10;99.80;;;;;;5028852;28;20025;-87
2021/10/25 05:09:33;;;;;;;4.30;2.30;;;4.10;99.50;;;;;;5012770;28;20029;-87
2021/10/25 05:11:59;;;;;;;4.67;2.17;;;4.10;99.40;;;;;;5031376;28;20026;-87
2021/10/25 05:14:25;;;;;;;4.40;2.43;;;4.00;99.70;;;;;;5032526;28;20041;-87
2021/10/25 05:16:50;;;;;;;3.90;2.27;;;4.00;99.80;;;;;;5016199;28;20032;-87
2021/10/25 05:19:16;;;;;;;3.63;2.00;;;4.00;99.90;;;;;;5033628;28;20022;-88
2021/10/25 05:21:41;;;;;;;5.00;2.30;;;4.10;99.90;;;;;;5033317;28;20049;-86
2021/10/25 05:24:07;;;;;;;3.53;2.10;;;4.00;99.90;;;;;;5033771;28;20375;-85
2021/10/25 05:26:33;;;;;;;3.77;2.10;;;4.10;99.90;;;;;;5032380;28;20364;-86
2021/10/25 05:28:59;;;;;;;3.47;2.30;;;4.10;99.90;;;;;;5033534;28;20026;-86
2021/10/25 05:31:25;;;;;;;3.60;2.00;;;4.10;99.90;;;;;;5033552;28;20025;-85
2021/10/25 05:33:51;;;;;;;4.73;2.30;;;4.10;99.90;;;;;;5033079;28;20379;-85
2021/10/25 05:36:17;;;;;;;5.10;2.30;;;4.10;99.90;;;;;;5033201;28;20022;-85
2021/10/25 05:38:43;;;;;;;3.63;2.63;;;4.10;99.90;;;;;;5017406;28;20033;-85
2021/10/25 05:41:09;;;;;;;3.63;2.43;;;4.00;99.90;;;;;;5033407;28;20032;-85
2021/10/25 05:43:36;;;;;;;4.47;2.43;;;4.10;99.90;;;;;;5032774;28;20117;-85
2021/10/25 05:46:02;;;;;;;6.00;2.77;;;4.10;99.90;;;;;;5017865;28;20356;-86
2021/10/25 05:48:28;;;;;;;4.37;2.13;;;4.10;99.90;;;;;;5017578;28;20363;-86
2021/10/25 05:50:54;;;;;;;2.83;2.03;;;4.10;99.90;;;;;;5032579;28;20443;-86
2021/10/25 05:53:20;;;;;;;5.87;2.67;;;4.10;99.90;;;;;;5032909;28;20072;-89
2021/10/25 05:55:47;;;;;;;5.97;2.50;;;4.00;99.90;;;;;;5016216;28;20084;-88
2021/10/25 05:58:18;;;;;;;4.57;2.70;;;4.10;99.90;;;;;;5031827;28;20040;-88
2021/10/25 06:00:50;;;;;;;6.72;2.50;;;4.00;99.90;;;;;;5032215;28;20542;-87
2021/10/25 06:03:20;;;;;;;5.10;2.25;;;4.00;99.90;;;;;;5016216;28;20438;-88
2021/10/25 06:05:46;;;;;;;4.00;2.57;;;4.10;99.90;;;;;;5015596;28;20521;-88
2021/10/25 06:08:14;;;;;;;4.33;2.57;;;4.00;99.90;;;;;;5016305;28;20104;-88
2021/10/25 06:10:40;;;;;;;3.33;2.43;;;4.10;99.90;;;;;;5012923;28;20471;-87
2021/10/25 06:13:08;;;;;;;3.67;2.30;;;4.20;99.90;;;;;;5015989;28;20026;-87
2021/10/25 06:15:39;;;;;;;5.20;2.30;;;4.10;99.90;;;;;;5015800;28;20026;-87
2021/10/25 06:18:08;;;;;;;4.97;2.40;;;4.10;99.90;;;;;;5015253;28;20021;-87
2021/10/25 06:20:37;;;;;;;4.83;2.27;;;4.10;99.90;;;;;;5016442;28;20509;-87
2021/10/25 06:23:11;;;;;;;4.87;2.30;;;4.10;99.90;;;;;;5015275;28;20046;-87
2021/10/25 06:25:38;;;;;;;3.80;2.20;;;4.20;99.90;;;;;;5014879;28;20061;-87
2021/10/25 06:28:04;;;;;;;3.87;2.13;;;4.20;99.90;;;;;;5015523;28;20126;-88
2021/10/25 06:30:30;;;;;;;3.60;2.50;;;4.30;99.90;;;;;;5015349;28;20018;-88
2021/10/25 06:32:56;;;;;;;3.17;2.07;;;4.30;99.90;;;;;;5014798;28;20033;-88
2021/10/25 06:35:26;;;;;;;4.40;2.20;;;4.30;99.90;;;;;;5015847;28;20029;-88
2021/10/25 06:38:00;;;;;;;3.77;2.27;;;4.40;99.90;;;;;;5014795;28;20017;-88
2021/10/25 06:40:27;;;;;;;3.13;2.30;;;4.40;99.90;;;;;;5014857;28;20018;-88
2021/10/25 06:42:53;;;;;;;3.60;2.30;;;4.40;99.90;;;;;;5047648;28;20025;-88
2021/10/25 06:45:21;;;;;;;4.67;2.13;;;4.40;99.90;;;;;;5015115;28;20053;-87
2021/10/25 06:47:51;;;;;;;3.73;2.10;;;4.40;99.90;;;;;;5014704;28;20486;-87
2021/10/25 06:50:21;;;;;;;4.87;2.20;;;4.40;99.90;;;;;;5014570;28;20033;-86
2021/10/25 06:52:47;;;;;;;3.80;2.60;;;4.40;99.90;;;;;;5014637;28;20026;-88
2021/10/25 06:55:13;;;;;;;8.57;2.90;;;4.50;99.90;;;;;;5017481;28;20344;-88
2021/10/25 06:57:38;;;;;;;5.30;2.80;;;4.40;99.90;;;;;;5025008;28;20068;-88
2021/10/25 07:00:09;;;;;;;7.90;3.53;;;4.50;99.90;;;;;;5015072;28;20402;-88
2021/10/25 07:02:35;;;;;;;5.70;3.43;;;4.50;99.90;;;;;;5014399;28;20036;-89
2021/10/25 07:05:02;;;;;;;7.40;4.13;;;4.60;99.90;;;;;;5014408;28;20032;-84
2021/10/25 07:07:29;;;;;;;6.00;4.00;;;4.60;99.90;;;;;;5015465;28;20037;-84
2021/10/25 07:09:56;;;;;;;4.70;2.67;;;4.70;99.90;;;;;;5014717;28;20435;-85
2021/10/25 07:12:24;;;;;;;5.93;2.53;;;4.70;99.90;;;;;;5013950;28;20057;-83
2021/10/25 07:14:54;;;;;;;6.50;2.93;;;4.70;99.90;;;;;;5015248;28;20018;-83
2021/10/25 07:20:12;;;;;;;4.95;2.70;;;4.70;99.90;;;;;;5014822;28;20105;-84
2021/10/25 07:59:28;;;;;;;6.57;2.63;;;5.00;99.90;;;;;;5015159;28;20048;-87
2021/10/25 08:11:18;;;;;;;3.40;2.03;;;5.80;99.90;;;;;;5020368;28;20515;-89
2021/10/25 08:13:46;;;;;;;5.73;2.27;;;5.90;99.90;;;;;;5035307;28;20030;-89
2021/10/25 08:19:05;;;;;;;4.93;2.77;;;5.90;99.90;;;;;;5019644;28;20045;-92
2021/10/25 08:21:27;;;;;;;4.13;2.60;;;6.00;99.90;;;;;;5020579;28;20026;-91
2021/10/25 08:23:53;;;;;;;5.70;3.23;;;6.10;99.90;;;;;;5013603;28;20360;-91
2021/10/25 08:26:19;;;;;;;5.37;3.10;;;6.10;99.90;;;;;;5013055;28;20060;-92
2021/10/25 08:28:45;;;;;;;6.67;3.20;;;6.20;99.90;;;;;;5028896;28;20036;-91
2021/10/25 08:31:13;;;;;;;4.87;3.30;;;6.30;99.90;;;;;;5013248;28;20026;-92
2021/10/25 08:36:22;;;;;;;7.10;3.83;;;6.50;99.90;;;;;;5014254;28;20026;-92
2021/10/25 08:41:34;;;;;;;8.90;4.67;;;6.60;99.90;;;;;;5014783;28;20142;-92
2021/10/25 08:44:01;;;;;;;11.57;5.37;;;6.70;99.90;;;;;;5012436;28;20475;-91
2021/10/25 08:46:29;;;;;;;9.93;5.53;;;6.80;99.90;;;;;;5015058;28;20030;-92
2021/10/25 08:48:55;;;;;;;13.13;6.00;;;6.80;99.90;;;;;;5016110;28;20056;-89
2021/10/25 08:51:25;;;;;;;13.07;5.50;;;7.00;99.90;;;;;;5016206;28;20029;-77
2021/10/25 08:53:51;;;;;;;10.20;6.60;;;7.10;99.90;;;;;;5032893;28;20057;-87
2021/10/25 08:56:18;;;;;;;11.37;6.33;;;7.10;99.90;;;;;;5017216;28;20044;-86
2021/10/25 08:58:46;;;;;;;12.27;6.83;;;7.20;99.90;;;;;;5013846;28;20104;-83
2021/10/25 09:01:25;;;;;;;13.77;6.68;;;7.30;99.90;;;;;;4997674;28;20057;-80
2021/10/25 09:04:13;;;;;;;12.70;6.80;;;7.30;99.90;;;;;;5009951;28;20034;-82
2021/10/25 09:06:54;;;;;;;12.33;7.07;;;7.50;99.90;;;;;;5016598;28;20120;-82
2021/10/25 09:09:19;;;;;;;10.05;6.40;;;7.50;99.90;;;;;;5006110;28;20080;-83
2021/10/25 09:11:59;;;;;;;11.85;6.68;;;7.50;99.90;;;;;;5031920;28;20025;-82
2021/10/25 09:14:25;;;;;;;8.98;6.20;;;7.40;99.90;;;;;;5012888;28;20026;-84
2021/10/25 09:17:17;;;;;;;13.05;7.20;;;7.50;99.90;;;;;;5017061;28;20076;-83
2021/10/25 09:19:46;;;;;;;12.48;6.72;;;7.50;99.90;;;;;;5016867;28;20034;-83
2021/10/25 09:22:19;;;;;;;11.15;6.68;;;7.50;99.90;;;;;;5016951;28;20030;-84
2021/10/25 09:25:03;;;;;;;13.57;5.60;;;7.60;99.90;;;;;;4996915;28;20042;-83
2021/10/25 09:27:38;;;;;;;13.82;6.25;;;7.60;99.90;;;;;;5030162;28;20034;-89
2021/10/25 09:30:20;;;;;;;13.93;6.32;;;7.60;99.90;;;;;;5029807;28;20154;-96
2021/10/25 09:32:47;;;;;;;9.02;5.70;;;7.70;99.90;;;;;;4996693;28;20053;-90
2021/10/25 09:35:28;;;;;;;10.00;5.75;;;7.70;99.90;;;;;;5004186;28;20030;-93
2021/10/25 09:38:05;;;;;;;7.75;5.05;;;7.80;99.90;;;;;;5016107;28;20025;-91
2021/10/25 09:49:14;;;;;;;10.48;5.50;;;8.40;99.80;;;;;;5017448;28;20030;-91
2021/10/25 09:51:20;;;;;;;11.63;5.32;;;8.50;99.60;;;;;;5018878;28;20379;-88
2021/10/25 09:53:47;;;;;;;9.65;5.38;;;8.60;99.60;;;;;;5015231;28;20044;-86
2021/10/25 09:56:16;;;;;;;14.68;6.28;;;8.70;99.40;;;;;;5015690;28;20084;-90
2021/10/25 09:58:55;;;;;;;12.00;5.70;;;8.70;99.70;;;;;;5015565;28;20068;-90
2021/10/25 10:01:26;;;;;;;10.38;5.50;;;8.70;99.60;;;;;;5015941;28;20463;-90
2021/10/25 10:03:53;;;;;;;11.82;5.32;;;8.70;99.60;;;;;;5015481;28;20038;-91
2021/10/25 10:06:24;;;;;;;12.07;6.72;;;8.70;99.60;;;;;;5016674;28;20124;-90
2021/10/25 10:08:50;;;;;;;10.43;6.22;;;8.90;99.30;;;;;;5016030;28;20026;-90
2021/10/25 10:11:20;;;;;;;10.77;5.85;;;9.00;98.60;;;;;;5015969;28;20030;-91
2021/10/25 10:13:47;;;;;;;11.75;5.50;;;9.10;98.80;;;;;;5015736;28;20398;-87
2021/10/25 10:16:14;;;;;;;13.30;5.72;;;9.20;98.30;;;;;;5015408;28;20532;-91
2021/10/25 10:18:44;;;;;;;11.10;6.10;;;9.40;98.70;;;;;;5015528;28;20083;-91
2021/10/25 10:21:12;;;;;;;14.25;7.40;;;9.50;97.80;;;;;;5015891;28;20040;-89
2021/10/25 10:23:40;;;;;;;10.98;6.63;;;9.60;97.20;;;;;;5014700;28;20026;-90
2021/10/25 10:26:14;;;;;;;13.07;6.72;;;9.60;97.30;;;;;;5014684;28;20033;-91
2021/10/25 10:28:47;;;;;;;10.48;6.80;;;9.70;97.40;;;;;;5015408;28;20041;-91
2021/10/25 10:31:31;;;;;;;11.13;5.95;;;9.80;96.70;;;;;;5014623;28;20022;-93
2021/10/25 10:34:00;;;;;;;12.10;5.53;;;9.90;96.50;;;;;;5015913;28;20112;-94
2021/10/25 10:36:32;;;;;;;9.95;5.25;;;9.80;96.40;;;;;;5015166;28;20030;-92
2021/10/25 10:39:10;;;;;;;8.70;4.93;;;9.80;96.30;;;;;;5015087;28;20028;-93
2021/10/25 10:41:38;;;;;;;11.20;4.80;;;9.70;96.70;;;;;;5015053;28;20025;-93
2021/10/25 10:44:12;;;;;;;8.77;4.60;;;9.70;97.10;;;;;;5014634;28;20102;-93
2021/10/25 10:47:00;;;;;;;7.40;4.35;;;9.90;97.10;;;;;;5015023;28;20034;-93
2021/10/25 10:49:29;;;;;;;7.22;4.30;;;10.10;96.00;;;;;;5015258;28;20049;-93
2021/10/25 11:00:44;;;;;;;7.85;4.22;;;10.30;94.70;;;;;;5010756;28;20033;-89
2021/10/25 11:03:22;;;;;;;8.27;4.28;;;10.30;95.10;;;;;;5013714;28;20026;-91
2021/10/25 11:05:58;;;;;;;6.43;4.10;;;10.40;94.70;;;;;;5013799;28;20041;-94
2021/10/25 11:08:29;;;;;;;6.80;4.10;;;10.60;94.60;;;;;;5014011;28;20033;-90
2021/10/25 11:11:00;;;;;;;7.22;3.88;;;10.60;94.50;;;;;;5013527;28;20113;-89
2021/10/25 11:13:29;;;;;;;11.07;3.75;;;10.50;94.70;;;;;;5013617;28;20448;-90
2021/10/25 11:18:47;;;;;;;7.70;4.25;;;10.50;94.60;;;;;;5015169;28;20022;-94
2021/10/25 11:21:23;;;;;;;8.40;4.72;;;10.40;94.60;;;;;;5013939;28;20490;-85
2021/10/25 11:23:55;;;;;;;7.95;4.22;;;10.40;94.80;;;;;;5013507;28;20037;-90
2021/10/25 11:26:35;;;;;;;;;;;10.30;95.00;;;;;;5013480;28;20564;-88
2021/10/25 11:29:03;;;;;;;7.43;3.70;;;10.30;95.00;;;;;;5013834;28;20335;-91
2021/10/25 11:31:31;;;;;;;6.93;3.75;;;10.30;95.70;;;;;;5014007;28;20022;-91
2021/10/25 11:33:58;;;;;;;9.35;4.35;;;10.50;95.40;;;;;;5013875;28;20435;-91
2021/10/25 11:36:28;;;;;;;7.22;3.90;;;10.50;95.30;;;;;;5014394;28;20498;-91
2021/10/25 11:39:01;;;;;;;6.88;4.20;;;10.50;95.50;;;;;;5014985;28;20107;-94
2021/10/25 11:41:27;;;;;;;7.68;4.07;;;10.50;95.50;;;;;;5014143;28;20446;-90
2021/10/25 11:43:53;;;;;;;7.22;4.15;;;10.60;95.50;;;;;;5012045;28;20030;-92
2021/10/25 11:46:22;;;;;;;8.13;4.05;;;10.70;95.50;;;;;;5013356;28;20038;-89
2021/10/25 11:48:58;;;;;;;6.43;4.10;;;10.80;95.40;;;;;;5013155;28;20026;-85
2021/10/25 11:51:26;;;;;;;5.88;3.83;;;11.00;95.60;;;;;;5014389;28;20025;-86
2021/10/25 11:53:59;;;;;;;9.43;4.10;;;11.10;95.50;;;;;;5012987;28;20038;-86
2021/10/25 11:56:26;;;;;;;7.28;3.95;;;11.40;94.90;;;;;;5012822;28;20036;-84
2021/10/25 11:58:54;;;;;;;9.48;3.70;;;11.60;94.40;;;;;;5012289;28;20104;-86
2021/10/25 12:01:20;;;;;;;7.05;4.13;;;11.90;94.10;;;;;;5012999;28;20029;-86
2021/10/25 12:03:46;;;;;;;8.60;3.63;;;12.10;93.90;;;;;;5013363;28;20029;-85
2021/10/25 12:06:21;;;;;;;5.00;3.38;;;12.30;93.40;;;;;;5012944;28;20387;-84
2021/10/25 12:08:59;;;;;;;4.53;2.92;;;12.70;91.90;;;;;;4993570;28;20037;-86
2021/10/25 12:11:36;;;;;;;8.20;3.63;;;13.10;91.10;;;;;;5003462;28;20025;-85
2021/10/25 12:14:02;;;;;;;5.65;3.10;;;13.30;90.90;;;;;;5012628;28;20029;-85
2021/10/25 12:16:28;;;;;;;6.80;3.15;;;13.40;90.00;;;;;;5012772;28;20439;-85
2021/10/25 12:18:54;;;;;;;5.43;3.53;;;13.60;87.80;;;;;;5011704;28;20109;-84
2021/10/25 12:21:32;;;;;;;7.07;3.03;;;13.70;86.90;;;;;;5013532;28;20514;-86
2021/10/25 12:24:01;;;;;;;5.88;2.70;;;14.00;85.30;;;;;;5013085;28;20119;-86
2021/10/25 12:26:27;;;;;;;5.53;3.08;;;14.10;86.00;;;;;;5028895;28;20026;-87
2021/10/25 12:28:53;;;;;;;4.97;2.90;;;14.30;84.70;;;;;;5011737;28;20041;-87
2021/10/25 12:31:20;;;;;;;6.70;2.95;;;14.50;85.00;;;;;;5012768;28;20029;-86
2021/10/25 12:33:51;;;;;;;4.40;3.13;;;14.70;85.00;;;;;;5012599;28;20414;-84
2021/10/25 12:36:20;;;;;;;6.03;2.83;;;15.30;80.70;;;;;;5012636;28;20034;-89
2021/10/25 12:38:50;;;;;;;4.90;2.72;;;15.90;79.20;;;;;;5007174;28;20026;-87
2021/10/25 12:41:16;;;;;;;7.13;2.78;;;16.20;75.90;;;;;;5012657;28;20482;-89
2021/10/25 12:43:47;;;;;;;5.75;2.65;;;16.30;74.60;;;;;;5008772;28;20053;-87
2021/10/25 12:46:17;;;;;;;6.32;2.72;;;16.80;73.30;;;;;;5012855;28;20033;-89
2021/10/25 12:48:51;;;;;;;5.40;2.60;;;17.20;71.30;;;;;;5010376;28;20080;-90
2021/10/25 12:51:19;;;;;;;4.35;2.42;;;17.60;69.80;;;;;;5012701;28;20030;-82
2021/10/25 12:53:51;;;;;;;3.67;2.15;;;18.20;66.70;;;;;;5044076;28;20120;-86
2021/10/25 12:56:28;;;;;;;3.45;2.15;;;18.60;63.80;;;;;;5011282;28;20083;-87
2021/10/25 12:59:02;;;;;;;14.68;2.35;;;18.90;60.90;;;;;;5010444;28;20050;-86
2021/10/25 13:01:28;;;;;;;3.45;2.15;;;19.40;59.50;;;;;;5009231;28;20459;-86
2021/10/25 13:03:57;;;;;;;4.72;2.40;;;20.00;59.20;;;;;;5010553;28;20068;-80
2021/10/25 13:06:29;;;;;;;4.65;2.28;;;20.50;57.40;;;;;;5011186;28;20042;-87
2021/10/25 13:08:59;;;;;;;;;;;20.80;55.40;;;;;;5012895;28;20497;-92
2021/10/25 13:11:25;;;;;;;4.78;2.00;;;21.30;53.90;;;;;;5013906;28;19906;-94
2021/10/25 13:13:51;;;;;;;2.65;1.85;;;21.60;53.20;;;;;;5013041;28;20109;-94
2021/10/25 13:16:18;;;;;;;3.00;2.00;;;22.00;52.20;;;;;;5029266;28;20099;-85
2021/10/25 13:18:44;;;;;;;3.95;2.30;;;22.10;52.10;;;;;;5013384;28;20022;-83
2021/10/25 13:21:10;;;;;;;5.13;2.00;;;22.20;52.20;;;;;;5011097;28;20033;-85
2021/10/25 13:23:37;;;;;;;2.95;2.13;;;22.30;51.30;;;;;;5011627;28;20034;-85
2021/10/25 13:26:03;;;;;;;4.72;2.15;;;22.00;52.50;;;;;;5015593;28;20134;-85
2021/10/25 13:28:30;;;;;;;4.00;2.10;;;21.30;53.10;;;;;;5020820;28;20471;-83
2021/10/25 13:30:56;;;;;;;4.82;2.15;;;20.60;53.80;;;;;;5012158;28;20058;-81
2021/10/25 13:33:25;;;;;;;10.93;5.30;;;20.00;55.20;;;;;;5014980;28;20029;-82
2021/10/25 13:35:51;;;;;;;9.80;5.00;;;19.50;56.60;;;;;;5013771;28;20030;-87
2021/10/25 13:38:16;;;;;;;4.40;3.00;;;19.20;58.10;;;;;;5015972;28;20030;-86
2021/10/25 13:40:45;;;;;;;3.95;2.50;;;19.00;57.90;;;;;;5010663;28;20026;-86
2021/10/25 13:43:11;;;;;;;3.80;2.17;;;18.70;58.10;;;;;;5026306;28;20026;-85
2021/10/25 13:45:37;;;;;;;3.20;2.15;;;18.60;58.40;;;;;;5028217;28;20433;-84
2021/10/25 13:48:02;;;;;;;4.40;2.08;;;18.30;58.70;;;;;;5014922;28;20026;-85
2021/10/25 13:50:28;;;;;;;3.05;2.10;;;18.10;59.40;;;;;;5014962;28;20048;-82
2021/10/25 13:52:54;;;;;;;5.38;2.30;;;17.80;60.30;;;;;;5013543;28;20026;-82
2021/10/25 13:55:20;;;;;;;4.35;2.30;;;17.70;60.90;;;;;;5014495;28;20112;-81
2021/10/25 13:57:48;;;;;;;3.95;1.90;;;17.50;62.10;;;;;;5014258;28;20054;-82
2021/10/25 14:00:15;;;;;;;3.13;2.00;;;17.30;63.10;;;;;;5016186;28;20079;-93
2021/10/25 14:02:42;;;;;;;4.20;2.10;;;17.10;63.50;;;;;;5016673;28;20036;-87
2021/10/25 14:05:11;;;;;;;3.88;2.00;;;16.90;64.80;;;;;;5014138;28;20071;-82
2021/10/25 14:07:37;;;;;;;3.90;1.80;;;16.80;65.00;;;;;;5014479;28;20034;-81
2021/10/25 14:12:39;;;;;;;3.92;1.88;;;16.40;64.80;;;;;;5014964;28;20037;-83
2021/10/25 14:17:33;;;;;;;3.63;2.20;;;16.20;66.10;;;;;;5016051;28;20026;-87
2021/10/25 14:19:59;;;;;;;3.33;1.55;;;16.10;66.20;;;;;;5014713;28;20034;-79
2021/10/25 14:22:25;;;;;;;4.72;2.33;;;16.00;67.50;;;;;;5014330;28;20068;-85
2021/10/25 14:24:50;;;;;;;3.05;1.77;;;15.80;67.20;;;;;;5014742;28;20054;-86
2021/10/25 14:27:16;;;;;;;5.00;1.90;;;15.70;67.60;;;;;;5014653;28;20030;-84
2021/10/25 14:29:42;;;;;;;2.67;2.05;;;15.60;67.90;;;;;;5014390;28;20028;-79
2021/10/25 14:32:09;;;;;;;3.80;1.85;;;15.50;68.50;;;;;;5013953;28;20051;-80
2021/10/25 14:34:36;;;;;;;2.03;1.48;;;15.40;68.90;;;;;;5015206;28;20033;-81
2021/10/25 14:37:06;;;;;;;3.47;1.70;;;15.30;69.60;;;;;;5013371;28;20030;-80
2021/10/25 14:39:37;;;;;;;4.35;1.80;;;15.20;71.20;;;;;;5014158;28;20029;-78
2021/10/25 14:57:35;;;;;;;4.05;1.83;;;14.70;77.70;;;;;;5015487;28;20483;-86
2021/10/25 15:00:00;;;;;;;2.92;1.60;;;14.70;78.80;;;;;;5012262;28;20756;-85